Aircraft
UPR1004 PR-ACC A320
SBRJ
Santos Dumont Airport
SBSP
Congonhas Airport
Pilot:: Jair
Aircraft:: A320neo V2
Alternate: SBKP
Network: ivao
FLIGHT DETAILS
Distance: 197nm Duration 00h 52m
Cruise Speed: Flight Level: 25000
Validation: Validated Type Charter
Flight Fuel
ZFW: 42305
Block Fuel/Initial FOB: 9720
Flight Fuel: 0
Cargo
Passengers: 145
Cargo: 12100
ROUTE
ROUTE: sbrj dct sbsp
REMARKS:
DATE
Date: 26-09-05
Departure Time: 0133
Cargo: 12100
FLIGHT DETAILS
Crashed: No
Validator Comments: Validado por Rafael
Flight Rating: 99
LANDING ANALYSIS
Landing wind: 70º/7 kt
Landing heading: 169º
Landing VS:: -196 ft/min
Landing IAS:: 120 kt
Landing Force G: 1 G
Landing Bank: 4
Landing Pitch: -5
Landing Flaps: 100
Navigation Lights: ON
Landing Lights: ON
Beacon Lights: ON
Strobe Lights: ON
viserfly

ALTITUDE CHART

viserfly

MAIN EVENTS

DATE EVENT IAS ALTITUDE
2026-09-05 01:23:49 FLYacars version 1.3.6 4 25
2026-09-05 01:23:49 Aircraft boarding in progress 4 25
2026-09-05 01:23:49 FLAPS 25% 4 25
2026-09-05 01:23:49 Navigation Lights ON 4 25
2026-09-05 01:23:49 Beacon Lights ON 4 25
2026-09-05 01:23:49 Strobe Lights ON 4 25
2026-09-05 01:23:49 Taxi Lights ON 4 25
2026-09-05 01:24:21 Starting Engine 2 2 25
2026-09-05 01:25:29 Starting Engine 1 0 25
2026-09-05 01:26:46 Simulator Paused 0 25
2026-09-05 01:27:01 Simulator Un-Paused 0 25
2026-09-05 01:27:25 Landing Lights ON 0 25
2026-09-05 01:27:27 Landing Lights OFF 0 25
2026-09-05 01:28:30 Aircraft taxiing to runway 0 25
2026-09-05 01:31:29 Landing Lights ON 0 25
2026-09-05 01:33:50 Detected Take-off roll, HDG 201, IAS 147kt, GS 139kt, G-force 1.1g, Pitch -5.0deg, Bank 0.5deg, Wind 201/13kt, Temp 24°C 147 26
2026-09-05 01:33:50 Airborne 147 26
2026-09-05 01:33:54 Gear UP, IAS 163kt, GS 153kt, ALT 121ft AGL 163 132
2026-09-05 01:33:55 Gear DOWN, IAS 163kt, GS 153kt, ALT 126ft AGL 163 137
2026-09-05 01:33:59 Taxi Lights OFF 167 363
2026-09-05 01:34:11 Gear UP, IAS 175kt, GS 178kt, ALT 1075ft AGL 175 1076
2026-09-05 01:34:30 FLAPS 0% 183kt, ALT 2213ft 183 2213
2026-09-05 01:36:52 Landing lights ON above 10000fts 254 11004
2026-09-05 01:36:54 Landing Lights OFF 256 11053
2026-09-05 01:41:35 Aircraft on Top Of Climb at 25820ft, IAS 280kt, GS 353kt, HDG 279deg, TAT -22deg, WIND 258/62kt 280 25820
2026-09-05 01:48:40 Aircraft on Top Of Descent at 24498ft, IAS 279kt, GS 350kt, HDG 280deg, TAT -19deg, WIND 260/56kt 279 24498
2026-09-05 02:07:16 Landing Lights ON 190 10131
2026-09-05 02:10:00 FLAPS 25% 190kt, ALT 7415ft 190 7415
2026-09-05 02:10:08 FLAPS 50% 187kt, ALT 7294ft 187 7294
2026-09-05 02:11:52 FLAPS 75% 137kt, ALT 5478ft 137 5478
2026-09-05 02:13:05 Gear DOWN, IAS 135kt, GS 147kt, ALT 1629ft AGL 135 4270
2026-09-05 02:13:05 Gear UP, IAS 135kt, GS 147kt, ALT 1627ft AGL 135 4268
2026-09-05 02:13:10 Gear DOWN, IAS 135kt, GS 147kt, ALT 1636ft AGL 135 4188
2026-09-05 02:13:16 Taxi Lights ON 133 4091
2026-09-05 02:13:26 FLAPS 100% 134kt, ALT 3941ft 134 3941
2026-09-05 02:25:48 Landed at destination with a landing rate of -196fpm, G-force 1.0g, Pitch -5.4deg, Bank 3.9deg, HDG 169deg, IAS 120kt, GS 125kt, Wind 070/07kt, Temp 16°C 120 2608
2026-09-05 02:25:48 Incorrect altimeter settings on landing 120 2608
2026-09-05 02:26:06 FLAPS 75% 28 2613
2026-09-05 02:26:07 FLAPS 25% 25 2613
2026-09-05 02:26:07 Aircraft taxiing to apron 25 2613
2026-09-05 02:26:07 FLAPS 0% 24 2613
2026-09-05 02:26:29 Landing Lights OFF 9 2610
2026-09-05 02:30:14 Strobe Lights OFF 0 2604
2026-09-05 02:30:15 Beacon Lights OFF 0 2604
2026-09-05 02:30:28 Aircraft at gate/stand, ground services are moving into position, disembarkation has begun. Remaining FOB 9720kg FLYacars v1.3.6 0 2604
viserfly

ACARS DATA

DATE IAS GS ALTITUDE FUEL CONSUMED OAT FLIGHT STATUS
2026-09-05 01:24:19 2 3 25 0 24 PUSHBACK
2026-09-05 01:24:49 0 0 25 0 24 PUSHBACK
2026-09-05 01:25:19 0 0 25 0 24 PUSHBACK
2026-09-05 01:25:49 0 0 25 0 24 PUSHBACK
2026-09-05 01:26:19 0 0 25 0 24 PUSHBACK
2026-09-05 01:26:49 0 0 25 0 24 PUSHBACK
2026-09-05 01:27:19 0 0 25 0 24 PUSHBACK
2026-09-05 01:27:49 0 0 25 0 24 PUSHBACK
2026-09-05 01:28:19 0 2 25 0 24 PUSHBACK
2026-09-05 01:28:49 0 8 25 0 24 TAXI TO RUNWAY
2026-09-05 01:29:19 0 10 25 0 24 TAXI TO RUNWAY
2026-09-05 01:29:49 0 12 25 0 24 TAXI TO RUNWAY
2026-09-05 01:30:19 0 12 25 0 24 TAXI TO RUNWAY
2026-09-05 01:30:49 0 12 25 0 24 TAXI TO RUNWAY
2026-09-05 01:31:19 0 6 25 0 24 TAXI TO RUNWAY
2026-09-05 01:31:49 0 0 26 0 24 TAXI TO RUNWAY
2026-09-05 01:32:19 0 4 26 0 24 TAXI TO RUNWAY
2026-09-05 01:32:49 0 7 27 0 24 TAXI TO RUNWAY
2026-09-05 01:33:19 11 0 27 0 24 TAXI TO RUNWAY
2026-09-05 01:33:49 137 130 25 0 24 TAKEOFF
2026-09-05 01:34:19 181 187 1528 0 24 INITIAL CLIMB
2026-09-05 01:34:49 217 234 2950 0 22 CLIMB
2026-09-05 01:35:19 243 258 4582 0 18 CLIMB
2026-09-05 01:35:49 247 266 6547 0 14 CLIMB
2026-09-05 01:36:19 249 271 8702 0 10 CLIMB
2026-09-05 01:36:49 251 279 10842 0 6 CLIMB
2026-09-05 01:37:19 277 312 12139 0 3 CLIMB
2026-09-05 01:37:49 280 319 14040 0 0 CLIMB
2026-09-05 01:38:19 280 324 16082 0 -4 CLIMB
2026-09-05 01:38:49 279 328 18043 0 -8 CLIMB
2026-09-05 01:39:19 279 334 19786 0 -11 CLIMB
2026-09-05 01:39:49 280 342 21375 0 -14 CLIMB
2026-09-05 01:40:19 281 350 22915 0 -17 CLIMB
2026-09-05 01:40:49 280 347 24406 0 -19 CLIMB
2026-09-05 01:41:19 279 351 25605 0 -22 CLIMB
2026-09-05 01:41:49 280 354 25843 0 -22 ENROUTE
2026-09-05 01:42:19 281 355 25846 0 -22 ENROUTE
2026-09-05 01:42:49 282 355 25846 0 -22 ENROUTE
2026-09-05 01:43:19 281 356 25854 0 -22 ENROUTE
2026-09-05 01:43:49 282 356 25856 0 -22 ENROUTE
2026-09-05 01:44:19 282 357 25856 0 -22 ENROUTE
2026-09-05 01:44:49 282 357 25856 0 -22 ENROUTE
2026-09-05 01:45:19 281 357 25853 0 -22 ENROUTE
2026-09-05 01:45:49 282 357 25852 0 -22 ENROUTE
2026-09-05 01:46:19 281 357 25852 0 -22 ENROUTE
2026-09-05 01:46:49 282 358 25848 0 -22 ENROUTE
2026-09-05 01:47:19 282 358 25829 0 -22 DESCENT
2026-09-05 01:47:49 282 356 25345 0 -21 DESCENT
2026-09-05 01:48:19 280 352 24850 0 -20 DESCENT
2026-09-05 01:48:49 279 350 24350 0 -19 DESCENT
2026-09-05 01:49:19 280 347 23850 0 -18 DESCENT
2026-09-05 01:49:49 279 344 23351 0 -17 DESCENT
2026-09-05 01:50:19 279 342 22852 0 -16 DESCENT
2026-09-05 01:50:49 280 340 22354 0 -15 DESCENT
2026-09-05 01:51:19 279 338 21854 0 -14 DESCENT
2026-09-05 01:51:49 278 336 21354 0 -13 DESCENT
2026-09-05 01:52:19 279 336 20852 0 -12 DESCENT
2026-09-05 01:52:49 279 334 20352 0 -11 DESCENT
2026-09-05 01:53:19 279 333 19861 0 -10 DESCENT
2026-09-05 01:53:49 279 332 19357 0 -9 DESCENT
2026-09-05 01:54:19 280 330 18862 0 -9 DESCENT
2026-09-05 01:54:49 279 329 18372 0 -8 DESCENT
2026-09-05 01:55:19 279 327 17857 0 -7 DESCENT
2026-09-05 01:55:49 279 325 17354 0 -6 DESCENT
2026-09-05 01:56:19 280 323 16850 0 -5 DESCENT
2026-09-05 01:56:49 279 322 16357 0 -4 DESCENT
2026-09-05 01:57:19 279 320 15853 0 -3 DESCENT
2026-09-05 01:57:49 278 319 15357 0 -2 DESCENT
2026-09-05 01:58:19 279 318 14857 0 -1 DESCENT
2026-09-05 01:58:49 280 316 14357 0 -1 DESCENT
2026-09-05 01:59:19 280 315 13877 0 0 DESCENT
2026-09-05 01:59:49 278 313 13625 0 0 DESCENT
2026-09-05 02:00:19 255 284 13354 0 0 DESCENT
2026-09-05 02:00:49 250 273 13096 0 1 DESCENT
2026-09-05 02:01:19 247 268 12843 0 2 DESCENT
2026-09-05 02:01:49 247 267 12595 0 2 DESCENT
2026-09-05 02:02:19 247 265 12345 0 3 DESCENT
2026-09-05 02:02:49 246 266 12090 0 3 DESCENT
2026-09-05 02:03:19 251 264 11847 0 4 DESCENT
2026-09-05 02:03:49 236 249 11579 0 4 DESCENT
2026-09-05 02:04:19 215 223 11306 0 5 DESCENT
2026-09-05 02:04:49 201 205 11040 0 6 DESCENT
2026-09-05 02:05:19 190 193 10772 0 6 DESCENT
2026-09-05 02:05:49 189 192 10519 0 7 DESCENT
2026-09-05 02:06:19 191 193 10301 0 7 ENROUTE
2026-09-05 02:06:49 189 191 10282 0 7 ENROUTE
2026-09-05 02:07:19 190 193 10091 0 7 DESCENT
2026-09-05 02:07:49 189 193 9594 0 8 DESCENT
2026-09-05 02:08:19 189 194 9094 0 9 DESCENT
2026-09-05 02:08:49 189 196 8589 0 10 DESCENT
2026-09-05 02:09:19 189 196 8097 0 11 DESCENT
2026-09-05 02:09:49 189 198 7592 0 12 DESCENT
2026-09-05 02:10:19 180 188 7142 0 13 DESCENT
2026-09-05 02:10:49 168 176 6622 0 14 DESCENT
2026-09-05 02:11:19 152 160 6079 0 15 DESCENT
2026-09-05 02:11:49 138 146 5534 0 16 DESCENT
2026-09-05 02:12:19 134 144 5035 0 16 DESCENT
2026-09-05 02:12:49 135 146 4536 0 16 APPROACH
2026-09-05 02:13:19 133 147 4053 0 15 APPROACH
2026-09-05 02:13:49 133 146 3615 0 15 APPROACH
2026-09-05 02:14:19 134 152 3130 0 15 ON FINAL
2026-09-05 02:14:49 137 152 3044 0 15 ON FINAL
2026-09-05 02:15:19 138 151 3063 0 15 ON FINAL
2026-09-05 02:15:49 136 151 3048 0 15 ON FINAL
2026-09-05 02:16:19 135 153 3496 0 14 ON FINAL
2026-09-05 02:16:49 135 151 3918 0 15 ON FINAL
2026-09-05 02:17:19 136 151 3970 0 15 ON FINAL
2026-09-05 02:17:49 135 145 4013 0 15 ON FINAL
2026-09-05 02:18:19 137 142 4075 0 15 ON FINAL
2026-09-05 02:18:49 134 142 4121 0 15 ON FINAL
2026-09-05 02:19:19 134 143 4176 0 16 ON FINAL
2026-09-05 02:19:49 135 143 4227 0 16 ON FINAL
2026-09-05 02:20:19 135 144 4276 0 16 ON FINAL
2026-09-05 02:20:49 134 145 4317 0 16 ON FINAL
2026-09-05 02:21:19 135 144 4375 0 16 ON FINAL
2026-09-05 02:21:49 133 145 4414 0 16 ON FINAL
2026-09-05 02:22:19 132 149 4448 0 17 ON FINAL
2026-09-05 02:22:49 130 150 4511 0 17 ON FINAL
2026-09-05 02:23:19 131 152 4279 0 16 APPROACH
2026-09-05 02:23:49 136 148 3962 0 16 APPROACH
2026-09-05 02:24:19 134 139 3580 0 15 APPROACH
2026-09-05 02:24:49 124 131 3158 0 15 ON FINAL
2026-09-05 02:25:19 125 131 2910 0 16 ON FINAL
2026-09-05 02:25:49 119 124 2607 0 16 ON FINAL
2026-09-05 02:26:19 10 12 2613 0 16 TAXI TO APRON
2026-09-05 02:26:49 8 10 2605 0 16 TAXI TO APRON
2026-09-05 02:27:19 11 11 2606 0 16 TAXI TO APRON
2026-09-05 02:27:49 8 11 2606 0 16 TAXI TO APRON
2026-09-05 02:28:19 6 9 2604 0 16 TAXI TO APRON
2026-09-05 02:28:49 2 4 2604 0 16 TAXI TO APRON
2026-09-05 02:29:19 0 2 2604 0 16 TAXI TO APRON
2026-09-05 02:29:49 0 0 2604 0 16 TAXI TO APRON
2026-09-05 02:30:19 0 0 2604 0 16 TAXI TO APRON
  • Join our VA!

    It has been 11 years of great learning, friendships, and stories.

  • Sign up now!